昆明 の空港の天気 - METARとTAF

昆明巫家餽国際空港 ( ZPPP / KMG ) - 中国 雲南省昆明市
飛行場実況気象(Metar)
観測時間08/11 14:00 CST (08/11 06:00 UTC)
風向・風速西南西 6m/s
視程10km以上
天気現象
少しの雲 雲底高度 700m
全天の4割程度の雲 雲底高度 700m
全天の8割程度の雲 雲底高度 1220m
気温21℃
湿度83%
気圧1014hPa
METARZPPP 110600Z 24006MPS 9999 FEW023TCU SCT023 BKN040 21/18 Q1014 NOSIG
過去の天気等 Google飛行場航空写真 Wunderground天気予報

過去48時間のMETAR

飛行場予報(TAF)
発表時間: 8/11 11:04 CST (8/11 03:04 UTC)
予報対象時間: 11日14時 CST ~ 12日14時 CST
風向・風速南西 6m/s
視程10km以上
全天の4割程度の雲 雲底高度 790m
TAF ZPPP 110304Z 1106/1206 22006MPS 9999 SCT026 TX26/1108Z TN17/1123Z